Time;durP1;ratioP1;P1;durP2;ratioP2;P2;SDS_P1;SDS_P2;PMS_P1;PMS_P2;Temp;Humidity;BMP_temperature;BMP_pressure;BME280_temperature;BME280_humidity;BME280_pressure;Samples;Min_cycle;Max_cycle;Signal;HPM_P1;HPM_P2
2023/05/09 00:02:09;;;;;;;6.50;1.10;;;15.70;52.50;;;;;;5042908;28;20188;-64
2023/05/09 00:04:37;;;;;;;3.43;1.10;;;15.90;52.20;;;;;;5050593;28;20876;-65
2023/05/09 00:07:04;;;;;;;2.87;0.83;;;16.10;52.10;;;;;;5046643;28;20179;-65
2023/05/09 00:09:32;;;;;;;0.97;0.87;;;16.20;51.20;;;;;;5050092;28;20284;-65
2023/05/09 00:11:59;;;;;;;0.60;0.60;;;16.30;51.60;;;;;;5051835;28;20692;-67
2023/05/09 00:14:26;;;;;;;1.47;0.90;;;16.30;51.60;;;;;;5048096;28;20687;-62
2023/05/09 00:16:58;;;;;;;0.80;0.80;;;16.30;51.50;;;;;;5053679;28;20695;-65
2023/05/09 00:19:26;;;;;;;0.90;0.80;;;16.20;51.70;;;;;;5051399;28;20189;-66
2023/05/09 00:21:54;;;;;;;1.00;0.90;;;16.30;51.80;;;;;;5044796;28;20268;-67
2023/05/09 00:24:22;;;;;;;2.00;0.80;;;16.40;50.90;;;;;;5049006;28;20227;-65
2023/05/09 00:26:49;;;;;;;1.10;0.90;;;16.50;50.90;;;;;;5061445;28;20187;-64
2023/05/09 00:29:16;;;;;;;1.20;0.80;;;16.80;51.30;;;;;;5051278;28;20638;-65
2023/05/09 00:31:44;;;;;;;1.03;0.80;;;16.80;50.20;;;;;;5053696;28;20317;-66
2023/05/09 00:34:11;;;;;;;1.47;0.80;;;16.90;50.00;;;;;;5052469;28;20243;-63
2023/05/09 00:36:38;;;;;;;0.77;0.70;;;17.00;50.20;;;;;;5046282;28;20653;-63
2023/05/09 00:39:06;;;;;;;1.93;0.80;;;17.10;50.20;;;;;;5053482;28;20285;-63
2023/05/09 00:41:34;;;;;;;0.77;0.77;;;17.20;50.10;;;;;;5052924;28;20286;-63
2023/05/09 00:44:01;;;;;;;6.80;1.07;;;17.30;50.40;;;;;;5052252;28;20305;-65
2023/05/09 00:46:28;;;;;;;1.80;0.80;;;17.20;49.70;;;;;;5051000;28;20182;-65
2023/05/09 00:48:56;;;;;;;1.33;0.90;;;17.30;49.90;;;;;;5049067;28;20191;-64
2023/05/09 00:51:24;;;;;;;2.50;0.80;;;17.70;50.10;;;;;;5051432;28;20611;-65
2023/05/09 00:53:52;;;;;;;1.20;0.80;;;17.80;49.30;;;;;;5050409;28;20536;-64
2023/05/09 00:56:20;;;;;;;1.23;0.70;;;17.50;49.30;;;;;;5051917;28;20182;-63
2023/05/09 00:58:48;;;;;;;2.00;0.93;;;17.60;50.10;;;;;;5045232;28;20198;-64
2023/05/09 01:01:16;;;;;;;2.77;0.80;;;17.80;49.00;;;;;;5050597;28;20184;-65
2023/05/09 01:03:44;;;;;;;2.00;1.10;;;18.10;49.00;;;;;;5051991;28;20658;-67
2023/05/09 01:06:40;;;;;;;2.43;1.10;;;17.90;49.40;;;;;;5049443;28;20191;-66
2023/05/09 01:09:10;;;;;;;2.17;0.97;;;17.90;47.90;;;;;;5042950;28;20246;-64
2023/05/09 01:12:02;;;;;;;5.60;1.23;;;18.20;47.00;;;;;;5044859;28;20564;-67
2023/05/09 01:14:55;;;;;;;2.97;1.00;;;18.30;47.20;;;;;;5051944;28;20220;-65
2023/05/09 01:17:37;;;;;;;5.27;1.20;;;18.40;46.20;;;;;;5050754;28;20187;-63
2023/05/09 01:20:13;;;;;;;5.43;1.27;;;18.50;46.80;;;;;;5050728;28;20189;-63
2023/05/09 01:23:05;;;;;;;3.83;1.40;;;18.70;46.30;;;;;;5050071;28;20175;-63
2023/05/09 01:26:06;;;;;;;3.33;1.23;;;18.70;45.60;;;;;;5052225;28;20191;-64
2023/05/09 01:28:58;;;;;;;3.47;1.03;;;18.60;46.20;;;;;;5050306;28;20191;-66
2023/05/09 01:31:27;;;;;;;6.47;1.30;;;18.30;46.50;;;;;;5047086;28;20191;-63
2023/05/09 01:34:02;;;;;;;3.10;1.30;;;18.30;45.90;;;;;;5050507;28;20325;-66
2023/05/09 01:36:32;;;;;;;3.47;1.27;;;18.60;45.40;;;;;;5052986;28;20660;-64
2023/05/09 01:39:01;;;;;;;4.30;1.50;;;18.90;45.50;;;;;;5050657;28;20188;-63
2023/05/09 01:41:31;;;;;;;3.50;1.27;;;19.00;45.20;;;;;;5049129;28;20180;-64
2023/05/09 01:44:02;;;;;;;5.83;1.40;;;19.20;44.70;;;;;;5051773;28;20227;-65
2023/05/09 01:46:30;;;;;;;5.87;1.40;;;19.20;44.50;;;;;;5051110;28;20191;-63
2023/05/09 01:48:59;;;;;;;3.13;1.20;;;19.30;44.60;;;;;;5050909;28;20654;-64
2023/05/09 01:51:28;;;;;;;5.77;1.37;;;19.30;43.90;;;;;;5050958;28;20198;-64
2023/05/09 01:53:57;;;;;;;5.43;1.40;;;19.40;43.80;;;;;;5043890;28;20210;-64
2023/05/09 01:56:25;;;;;;;8.97;1.50;;;19.60;43.60;;;;;;5049375;28;20592;-62
2023/05/09 01:58:55;;;;;;;2.40;1.20;;;19.70;43.10;;;;;;5052021;28;20184;-64
2023/05/09 02:01:23;;;;;;;8.40;1.63;;;19.70;43.10;;;;;;5050693;28;20192;-65
2023/05/09 02:03:53;;;;;;;5.57;1.53;;;19.50;43.30;;;;;;5051765;28;20212;-64
2023/05/09 02:06:23;;;;;;;6.17;1.37;;;19.80;43.30;;;;;;5051025;28;20203;-63
2023/05/09 02:08:51;;;;;;;6.13;1.87;;;20.10;42.60;;;;;;5050943;28;20182;-63
2023/05/09 02:11:18;;;;;;;3.87;1.50;;;20.20;42.60;;;;;;5054989;28;20192;-66
2023/05/09 02:13:45;;;;;;;5.97;1.70;;;20.30;42.10;;;;;;5050941;28;20195;-66
2023/05/09 02:16:13;;;;;;;6.30;1.30;;;20.20;41.50;;;;;;5053127;28;20561;-64
2023/05/09 02:18:40;;;;;;;5.13;1.53;;;20.10;41.90;;;;;;5050665;28;20179;-64
2023/05/09 02:21:08;;;;;;;5.97;1.63;;;19.60;43.60;;;;;;5049942;28;20184;-65
2023/05/09 02:23:38;;;;;;;8.10;2.00;;;19.80;43.30;;;;;;5050963;28;20212;-64
2023/05/09 02:26:06;;;;;;;3.67;1.43;;;20.20;42.70;;;;;;5046937;28;20209;-62
2023/05/09 02:28:35;;;;;;;6.87;1.47;;;20.50;42.20;;;;;;5049759;28;20196;-64
2023/05/09 02:31:05;;;;;;;6.33;1.67;;;19.90;43.30;;;;;;5045190;28;20191;-63
2023/05/09 02:33:36;;;;;;;5.97;1.33;;;19.50;44.50;;;;;;5050119;28;20192;-62
2023/05/09 02:36:04;;;;;;;4.47;1.60;;;19.80;44.00;;;;;;5051431;28;20251;-64
2023/05/09 02:38:33;;;;;;;7.03;1.57;;;20.50;42.70;;;;;;5050568;28;20241;-64
2023/05/09 02:41:00;;;;;;;4.63;1.90;;;20.80;42.30;;;;;;5046494;28;20295;-64
2023/05/09 02:43:27;;;;;;;5.57;1.77;;;20.80;42.70;;;;;;5050812;28;20198;-64
2023/05/09 02:45:54;;;;;;;5.43;1.57;;;20.30;43.40;;;;;;5048481;28;20195;-64
2023/05/09 02:48:22;;;;;;;6.63;1.90;;;19.90;44.50;;;;;;5050751;28;20647;-64
2023/05/09 02:50:49;;;;;;;6.70;1.80;;;19.30;45.50;;;;;;5049813;28;20184;-64
2023/05/09 02:53:16;;;;;;;7.40;1.70;;;19.20;46.50;;;;;;5050472;28;20192;-64
2023/05/09 02:55:44;;;;;;;8.33;1.73;;;19.00;46.80;;;;;;5051365;28;20192;-65
2023/05/09 02:58:11;;;;;;;5.97;1.63;;;18.80;46.60;;;;;;5050012;28;20268;-63
2023/05/09 03:00:38;;;;;;;6.83;1.80;;;19.00;46.90;;;;;;5046543;28;20184;-65
2023/05/09 03:03:06;;;;;;;9.17;2.10;;;19.10;47.00;;;;;;5045599;28;20203;-64
2023/05/09 03:05:33;;;;;;;7.77;1.93;;;19.30;46.80;;;;;;5046758;28;20215;-63
2023/05/09 03:08:00;;;;;;;11.07;2.03;;;19.30;46.90;;;;;;5050302;28;20317;-65
2023/05/09 03:10:28;;;;;;;7.23;1.40;;;19.30;46.80;;;;;;5050931;28;20196;-63
2023/05/09 03:12:55;;;;;;;5.53;1.53;;;19.10;47.10;;;;;;5050084;28;20237;-63
2023/05/09 03:15:22;;;;;;;7.97;1.97;;;18.90;47.10;;;;;;5049983;28;20760;-64
2023/05/09 03:17:50;;;;;;;6.87;1.80;;;18.80;47.60;;;;;;5050256;28;20234;-66
2023/05/09 03:20:17;;;;;;;6.23;1.80;;;18.70;48.10;;;;;;5050176;28;20180;-63
2023/05/09 03:22:45;;;;;;;4.53;1.50;;;18.80;48.20;;;;;;5038675;28;20184;-63
2023/05/09 03:25:12;;;;;;;3.90;1.33;;;19.00;48.20;;;;;;5046120;28;20216;-66
2023/05/09 03:27:39;;;;;;;9.10;1.87;;;19.10;46.90;;;;;;5048538;28;20178;-63
2023/05/09 03:30:07;;;;;;;5.57;1.70;;;19.80;46.10;;;;;;5050682;28;20198;-64
2023/05/09 03:32:34;;;;;;;4.20;1.40;;;20.10;45.60;;;;;;5050150;28;20542;-64
2023/05/09 03:35:02;;;;;;;9.77;1.83;;;19.70;45.70;;;;;;5052026;28;20179;-66
2023/05/09 03:37:29;;;;;;;5.27;1.47;;;19.40;46.40;;;;;;5053581;28;20195;-64
2023/05/09 03:39:56;;;;;;;3.63;1.60;;;19.20;47.20;;;;;;5053984;28;20195;-67
2023/05/09 03:42:24;;;;;;;5.23;1.67;;;18.90;48.00;;;;;;5048499;28;20647;-64
2023/05/09 03:44:51;;;;;;;5.83;1.53;;;18.80;48.00;;;;;;5053248;28;20219;-65
2023/05/09 03:47:19;;;;;;;8.00;2.00;;;18.80;48.50;;;;;;5052181;28;20183;-63
2023/05/09 03:49:46;;;;;;;6.77;1.83;;;18.80;49.00;;;;;;5047822;28;20257;-63
2023/05/09 03:52:13;;;;;;;8.40;2.00;;;18.70;48.80;;;;;;5053130;28;20271;-64
2023/05/09 03:54:41;;;;;;;10.63;2.07;;;18.80;49.00;;;;;;5052553;28;20193;-66
2023/05/09 03:57:08;;;;;;;9.73;2.07;;;18.70;49.30;;;;;;5053480;28;20195;-65
2023/05/09 03:59:35;;;;;;;6.83;1.87;;;18.60;49.50;;;;;;5052807;28;20188;-64
2023/05/09 04:02:04;;;;;;;6.23;2.13;;;18.60;49.10;;;;;;5054252;28;20176;-64
2023/05/09 04:04:32;;;;;;;6.97;2.00;;;18.60;49.30;;;;;;5052528;28;20211;-64
2023/05/09 04:06:59;;;;;;;7.40;1.80;;;18.50;49.10;;;;;;5053961;28;20242;-63
2023/05/09 04:09:27;;;;;;;7.33;2.00;;;18.60;49.20;;;;;;5051498;28;20188;-66
2023/05/09 04:11:54;;;;;;;10.57;2.23;;;18.40;49.50;;;;;;5050284;28;20659;-64
2023/05/09 04:14:22;;;;;;;10.33;2.07;;;18.50;49.50;;;;;;5047955;28;20227;-63
2023/05/09 04:16:49;;;;;;;8.47;2.40;;;18.50;50.00;;;;;;5048879;28;20180;-67
2023/05/09 04:19:16;;;;;;;9.57;1.93;;;18.40;49.80;;;;;;5053222;28;20369;-65
2023/05/09 04:21:44;;;;;;;7.07;1.73;;;18.30;49.20;;;;;;5052142;28;20184;-67
2023/05/09 04:24:11;;;;;;;5.43;1.97;;;18.30;49.60;;;;;;5052859;28;20302;-66
2023/05/09 04:26:38;;;;;;;5.83;2.03;;;18.30;49.60;;;;;;5051750;28;20219;-65
2023/05/09 04:29:06;;;;;;;6.83;2.00;;;18.30;49.50;;;;;;5053502;28;20517;-65
2023/05/09 04:31:33;;;;;;;7.40;1.87;;;18.30;49.80;;;;;;5050475;28;20251;-67
2023/05/09 04:34:00;;;;;;;10.07;2.40;;;18.20;49.80;;;;;;5051982;28;20290;-67
2023/05/09 04:36:27;;;;;;;14.73;2.77;;;18.20;50.30;;;;;;5050754;28;20211;-64
2023/05/09 04:38:55;;;;;;;9.40;2.20;;;18.20;50.20;;;;;;5049604;28;20184;-63
2023/05/09 04:41:23;;;;;;;8.77;2.70;;;18.20;49.80;;;;;;5050613;28;20646;-64
2023/05/09 04:43:51;;;;;;;8.50;2.17;;;18.10;49.60;;;;;;5049636;28;20215;-64
2023/05/09 04:46:18;;;;;;;5.90;1.90;;;18.20;49.40;;;;;;5049819;28;20199;-63
2023/05/09 04:48:45;;;;;;;10.27;2.27;;;18.30;49.70;;;;;;5047537;28;20259;-66
2023/05/09 04:51:13;;;;;;;9.97;1.80;;;18.30;49.80;;;;;;5050986;28;20238;-63
2023/05/09 04:53:40;;;;;;;7.03;2.20;;;18.30;49.80;;;;;;5046733;28;20192;-64
2023/05/09 04:56:07;;;;;;;9.97;2.40;;;18.30;49.60;;;;;;5046032;28;20239;-63
2023/05/09 04:58:37;;;;;;;8.00;2.10;;;18.30;49.80;;;;;;5047887;28;20207;-65
2023/05/09 05:01:05;;;;;;;8.00;2.37;;;18.30;50.50;;;;;;5049676;28;20191;-64
2023/05/09 05:03:33;;;;;;;10.43;2.30;;;18.40;50.50;;;;;;5047427;28;20215;-65
2023/05/09 05:06:01;;;;;;;8.40;2.13;;;18.30;50.30;;;;;;5045963;28;20245;-64
2023/05/09 05:08:28;;;;;;;7.00;1.80;;;18.30;50.60;;;;;;5049195;28;20279;-65
2023/05/09 05:10:55;;;;;;;11.13;2.03;;;18.20;51.30;;;;;;5053704;28;20222;-63
2023/05/09 05:13:23;;;;;;;7.40;2.03;;;18.20;51.30;;;;;;5048212;28;20180;-63
2023/05/09 05:15:50;;;;;;;8.87;2.30;;;18.20;51.70;;;;;;5043007;28;20271;-64
2023/05/09 05:18:18;;;;;;;10.40;2.23;;;18.30;51.60;;;;;;5051281;28;20180;-63
2023/05/09 05:20:45;;;;;;;13.80;2.60;;;18.30;51.20;;;;;;5046398;28;20255;-65
2023/05/09 05:23:13;;;;;;;11.93;2.60;;;18.30;51.60;;;;;;5045022;28;20282;-66
2023/05/09 05:25:40;;;;;;;8.33;2.20;;;18.30;51.10;;;;;;5048427;28;20208;-62
2023/05/09 05:28:07;;;;;;;10.60;2.60;;;18.30;51.40;;;;;;5051033;28;20275;-66
2023/05/09 05:30:35;;;;;;;6.67;1.90;;;18.30;50.90;;;;;;5049718;28;20249;-62
2023/05/09 05:33:02;;;;;;;6.57;1.90;;;18.20;51.40;;;;;;5049911;28;20191;-67
2023/05/09 05:35:29;;;;;;;12.67;2.63;;;18.20;51.60;;;;;;5047256;28;20771;-62
2023/05/09 05:37:56;;;;;;;13.73;2.50;;;18.10;51.90;;;;;;5051322;28;20184;-65
2023/05/09 05:40:24;;;;;;;13.80;2.60;;;18.20;52.20;;;;;;5049526;28;20549;-65
2023/05/09 05:42:51;;;;;;;9.97;2.47;;;18.20;52.30;;;;;;5050482;28;20183;-63
2023/05/09 05:45:19;;;;;;;9.87;2.67;;;18.10;52.70;;;;;;5049096;28;20211;-66
2023/05/09 05:47:46;;;;;;;11.13;3.17;;;18.00;52.70;;;;;;5048617;28;20669;-65
2023/05/09 05:50:13;;;;;;;12.23;2.60;;;17.90;52.80;;;;;;5046072;28;20188;-64
2023/05/09 05:52:41;;;;;;;13.23;2.63;;;18.40;51.20;;;;;;5048592;28;20537;-65
2023/05/09 05:55:09;;;;;;;10.03;2.30;;;18.40;50.60;;;;;;5046414;28;20195;-64
2023/05/09 05:57:37;;;;;;;9.97;2.77;;;18.50;50.40;;;;;;5051165;28;20195;-65
2023/05/09 06:00:13;;;;;;;9.33;2.40;;;19.10;48.80;;;;;;5043928;28;20191;-63
2023/05/09 06:02:44;;;;;;;7.83;2.57;;;19.60;47.50;;;;;;5046101;28;20294;-65
2023/05/09 06:05:12;;;;;;;9.97;1.93;;;19.70;46.90;;;;;;5046898;28;20223;-65
2023/05/09 06:07:45;;;;;;;10.13;2.27;;;19.20;47.90;;;;;;5046464;28;20856;-65
2023/05/09 06:10:14;;;;;;;10.07;2.60;;;18.70;49.20;;;;;;5046072;28;20180;-64
2023/05/09 06:12:42;;;;;;;8.57;2.10;;;18.20;50.30;;;;;;5046626;28;20209;-64
2023/05/09 06:15:09;;;;;;;10.90;2.33;;;18.00;50.60;;;;;;5046078;28;20231;-62
2023/05/09 06:17:37;;;;;;;9.47;2.37;;;17.90;51.00;;;;;;5045720;28;20172;-63
2023/05/09 06:20:05;;;;;;;8.67;2.57;;;17.80;51.60;;;;;;5046036;28;20341;-64
2023/05/09 06:22:32;;;;;;;10.20;3.47;;;17.80;51.70;;;;;;5045676;28;20172;-65
2023/05/09 06:24:59;;;;;;;10.03;2.20;;;17.80;51.70;;;;;;5047632;28;20219;-63
2023/05/09 06:27:27;;;;;;;8.20;2.20;;;17.70;52.20;;;;;;5049976;28;20371;-64
2023/05/09 06:29:54;;;;;;;13.43;2.37;;;17.60;52.40;;;;;;5050325;28;20199;-64
2023/05/09 06:32:22;;;;;;;8.33;2.10;;;17.60;52.70;;;;;;5051141;28;20199;-63
2023/05/09 06:34:49;;;;;;;8.47;2.00;;;17.50;52.20;;;;;;5046163;28;20183;-65
2023/05/09 06:37:17;;;;;;;9.53;2.20;;;17.40;52.80;;;;;;5048123;28;20200;-63
2023/05/09 06:39:44;;;;;;;12.93;2.37;;;17.30;52.00;;;;;;5068424;28;20180;-63
2023/05/09 06:42:11;;;;;;;9.63;2.00;;;17.30;51.60;;;;;;5038270;28;20188;-62
2023/05/09 06:44:38;;;;;;;6.17;2.27;;;17.10;51.90;;;;;;5047716;28;20574;-65
2023/05/09 06:47:06;;;;;;;11.47;2.43;;;17.10;52.20;;;;;;5047574;28;20199;-65
2023/05/09 06:49:33;;;;;;;7.23;1.93;;;17.00;52.30;;;;;;5042806;28;20178;-64
2023/05/09 06:52:00;;;;;;;11.87;2.60;;;17.00;52.60;;;;;;5041162;28;20658;-66
2023/05/09 06:54:28;;;;;;;6.87;1.83;;;16.80;52.80;;;;;;5042580;28;20556;-65
2023/05/09 06:56:55;;;;;;;14.80;2.27;;;16.80;53.30;;;;;;5042304;28;20187;-65
2023/05/09 06:59:22;;;;;;;9.70;2.20;;;16.70;53.70;;;;;;5044882;28;20180;-65
2023/05/09 07:01:50;;;;;;;9.17;3.33;;;16.70;53.70;;;;;;5046911;28;20262;-64
2023/05/09 07:04:17;;;;;;;6.70;2.60;;;16.60;54.10;;;;;;5049158;28;20211;-64
2023/05/09 07:06:44;;;;;;;14.70;2.57;;;16.60;54.50;;;;;;5047986;28;20182;-63
2023/05/09 07:09:14;;;;;;;11.87;2.33;;;16.50;54.70;;;;;;5049279;28;20180;-64
2023/05/09 07:11:41;;;;;;;9.63;2.30;;;16.40;55.10;;;;;;5049003;28;20609;-64
2023/05/09 07:14:10;;;;;;;13.10;2.20;;;16.40;55.30;;;;;;5049296;28;20218;-64
2023/05/09 07:16:37;;;;;;;7.70;2.47;;;16.30;55.80;;;;;;5047918;28;20187;-65
2023/05/09 07:19:04;;;;;;;6.57;1.83;;;16.30;55.90;;;;;;5047733;28;20198;-65
2023/05/09 07:21:33;;;;;;;8.53;2.10;;;16.30;56.30;;;;;;5042752;28;20233;-64
2023/05/09 07:24:00;;;;;;;5.20;2.20;;;16.30;56.20;;;;;;5048730;28;20276;-66
2023/05/09 07:26:27;;;;;;;7.90;2.10;;;16.20;56.70;;;;;;5047493;28;20238;-65
2023/05/09 07:28:55;;;;;;;9.37;2.37;;;16.10;56.70;;;;;;5044213;28;20263;-64
2023/05/09 07:31:22;;;;;;;9.70;2.70;;;16.00;57.40;;;;;;5047552;28;20597;-63
2023/05/09 07:33:49;;;;;;;6.60;2.00;;;15.90;57.70;;;;;;5043200;28;20196;-67
2023/05/09 07:36:17;;;;;;;10.17;2.53;;;15.80;58.30;;;;;;5045185;28;20259;-66
2023/05/09 07:38:46;;;;;;;12.77;2.60;;;15.70;58.80;;;;;;5047700;28;20273;-66
2023/05/09 07:41:14;;;;;;;13.20;2.67;;;15.70;59.20;;;;;;5043656;28;20291;-64
2023/05/09 07:43:41;;;;;;;13.13;2.67;;;15.60;59.30;;;;;;5045739;28;20569;-63
2023/05/09 07:46:08;;;;;;;10.93;2.80;;;15.50;59.70;;;;;;5047845;28;20319;-63
2023/05/09 07:48:36;;;;;;;10.23;2.50;;;15.40;60.10;;;;;;5046845;28;20226;-63
2023/05/09 07:51:03;;;;;;;10.93;3.07;;;15.40;60.20;;;;;;5044887;28;20271;-64
2023/05/09 07:53:30;;;;;;;13.33;3.50;;;15.30;60.60;;;;;;5045174;28;20560;-65
2023/05/09 07:55:58;;;;;;;9.30;2.87;;;15.30;61.10;;;;;;5043955;28;20187;-63
2023/05/09 07:58:25;;;;;;;10.73;2.63;;;15.20;61.40;;;;;;5047365;28;20562;-64
2023/05/09 08:00:54;;;;;;;10.43;3.83;;;15.10;61.50;;;;;;5049403;28;20295;-63
2023/05/09 08:03:22;;;;;;;16.20;4.47;;;15.10;61.10;;;;;;5045475;28;20654;-64
2023/05/09 08:05:52;;;;;;;11.67;4.13;;;15.10;61.50;;;;;;5045855;28;20196;-64
2023/05/09 08:08:20;;;;;;;14.10;4.00;;;15.10;61.40;;;;;;5045745;28;20275;-65
2023/05/09 08:10:47;;;;;;;11.97;3.80;;;15.00;61.80;;;;;;5044522;28;20274;-63
2023/05/09 08:13:14;;;;;;;14.50;3.90;;;14.90;62.30;;;;;;5046188;28;20219;-67
2023/05/09 08:15:42;;;;;;;11.23;3.80;;;14.80;62.80;;;;;;5047132;28;20216;-64
2023/05/09 08:18:09;;;;;;;9.20;2.93;;;14.80;62.50;;;;;;5048164;28;20188;-63
2023/05/09 08:20:36;;;;;;;11.27;3.67;;;14.80;62.30;;;;;;5051100;28;20194;-64
2023/05/09 08:23:04;;;;;;;12.40;3.50;;;14.90;62.30;;;;;;5046158;28;20271;-63
2023/05/09 08:25:31;;;;;;;12.97;3.33;;;15.00;61.80;;;;;;5048420;28;20218;-62
2023/05/09 08:27:59;;;;;;;15.70;3.50;;;14.90;62.40;;;;;;5049594;28;20208;-63
2023/05/09 08:30:28;;;;;;;13.13;4.07;;;14.90;62.60;;;;;;5051104;28;20226;-62
2023/05/09 08:32:56;;;;;;;11.90;3.20;;;14.90;62.40;;;;;;5049038;28;20199;-63
2023/05/09 08:35:23;;;;;;;8.03;3.50;;;14.90;62.00;;;;;;5049392;28;20235;-63
2023/05/09 08:37:51;;;;;;;11.87;3.90;;;14.90;61.70;;;;;;5047850;28;20642;-64
2023/05/09 08:40:18;;;;;;;8.67;3.27;;;14.90;62.20;;;;;;5047970;28;20621;-63
2023/05/09 08:42:47;;;;;;;10.77;3.67;;;14.80;62.10;;;;;;5051796;28;20188;-64
2023/05/09 08:45:15;;;;;;;11.87;4.30;;;14.80;62.50;;;;;;5052304;28;20238;-65
2023/05/09 08:47:43;;;;;;;9.60;4.03;;;14.80;62.90;;;;;;5046360;28;20535;-65
2023/05/09 08:50:13;;;;;;;12.23;4.87;;;14.70;63.00;;;;;;5050463;28;20192;-65
2023/05/09 08:52:41;;;;;;;17.23;5.07;;;14.60;63.20;;;;;;5046022;28;20210;-64
2023/05/09 08:55:10;;;;;;;16.07;4.77;;;14.60;63.50;;;;;;5049518;28;21467;-64
2023/05/09 08:57:37;;;;;;;14.83;4.40;;;14.50;63.50;;;;;;5049257;28;20263;-64
2023/05/09 09:00:05;;;;;;;14.97;5.27;;;14.50;63.40;;;;;;5051379;28;20192;-63
2023/05/09 09:02:34;;;;;;;13.07;4.40;;;14.50;62.70;;;;;;5050025;28;20187;-66
2023/05/09 09:05:02;;;;;;;13.17;4.80;;;14.60;63.10;;;;;;5050616;28;20216;-63
2023/05/09 09:07:33;;;;;;;9.10;4.30;;;14.60;63.30;;;;;;5050750;28;20264;-63
2023/05/09 09:10:02;;;;;;;13.30;4.70;;;14.50;63.60;;;;;;5049993;28;20691;-64
2023/05/09 09:12:32;;;;;;;15.93;4.87;;;14.40;64.30;;;;;;5048716;28;20541;-66
2023/05/09 09:15:04;;;;;;;14.57;4.43;;;14.30;64.30;;;;;;5049041;28;20237;-64
2023/05/09 09:17:37;;;;;;;15.13;4.47;;;14.40;63.50;;;;;;5050279;28;20176;-65
2023/05/09 09:20:08;;;;;;;14.40;4.23;;;14.40;63.40;;;;;;5048928;28;20199;-65
2023/05/09 09:22:37;;;;;;;10.27;4.27;;;14.40;63.60;;;;;;5044856;28;20228;-65
2023/05/09 09:25:04;;;;;;;11.50;4.40;;;14.30;63.90;;;;;;5046212;28;20273;-62
2023/05/09 09:27:32;;;;;;;10.90;4.73;;;14.20;64.30;;;;;;5047460;28;20635;-66
2023/05/09 09:30:10;;;;;;;18.83;5.10;;;14.10;64.30;;;;;;5047858;28;20191;-67
2023/05/09 09:32:39;;;;;;;13.47;4.87;;;14.00;64.90;;;;;;5041735;28;20193;-65
2023/05/09 09:35:11;;;;;;;13.23;4.73;;;14.00;65.30;;;;;;5050791;28;20271;-62
2023/05/09 09:37:40;;;;;;;20.73;5.80;;;14.00;65.50;;;;;;5049715;28;20188;-65
2023/05/09 09:40:11;;;;;;;14.67;5.90;;;14.00;65.70;;;;;;5044611;28;20181;-64
2023/05/09 09:42:46;;;;;;;13.83;5.80;;;14.00;65.10;;;;;;5045213;28;20188;-64
2023/05/09 09:45:17;;;;;;;19.03;6.67;;;14.00;65.10;;;;;;5045754;28;20219;-64
2023/05/09 09:47:46;;;;;;;11.17;5.50;;;14.00;64.80;;;;;;5043507;28;20230;-64
2023/05/09 09:50:16;;;;;;;17.60;6.53;;;14.00;64.50;;;;;;5047249;28;20243;-64
2023/05/09 09:52:56;;;;;;;12.13;5.97;;;14.00;64.70;;;;;;5044003;28;20180;-63
2023/05/09 09:55:24;;;;;;;15.07;5.33;;;14.00;65.00;;;;;;5049579;28;20239;-64
2023/05/09 09:57:52;;;;;;;14.27;5.83;;;13.90;65.00;;;;;;5045829;28;20189;-63
2023/05/09 10:00:27;;;;;;;12.47;5.47;;;13.90;64.60;;;;;;5047731;28;20571;-63
2023/05/09 10:02:58;;;;;;;11.40;4.97;;;13.90;64.30;;;;;;5043750;28;20641;-62
2023/05/09 10:05:33;;;;;;;25.23;5.47;;;13.90;64.30;;;;;;5043572;28;20315;-64
2023/05/09 10:08:04;;;;;;;13.97;4.80;;;13.90;64.70;;;;;;5043936;28;20270;-64
2023/05/09 10:10:33;;;;;;;10.27;4.90;;;13.80;64.40;;;;;;5043096;28;20189;-65
2023/05/09 10:13:03;;;;;;;9.17;4.83;;;13.80;64.80;;;;;;5047774;28;20806;-65
2023/05/09 10:15:32;;;;;;;13.33;4.93;;;13.80;64.80;;;;;;5041627;28;20597;-66
2023/05/09 10:18:03;;;;;;;13.70;4.73;;;13.80;64.70;;;;;;5046579;28;20192;-65
2023/05/09 10:20:31;;;;;;;9.23;4.77;;;13.80;64.80;;;;;;5049987;28;20242;-64
2023/05/09 10:23:02;;;;;;;7.03;4.57;;;13.70;65.00;;;;;;5045081;28;20185;-63
2023/05/09 10:25:40;;;;;;;12.17;4.73;;;13.70;65.30;;;;;;5045065;28;20224;-65
2023/05/09 10:28:17;;;;;;;12.50;4.40;;;13.70;65.10;;;;;;5048526;28;20175;-66
2023/05/09 10:31:09;;;;;;;14.77;4.97;;;13.60;65.40;;;;;;5045325;28;20249;-67
2023/05/09 10:33:49;;;;;;;10.23;4.33;;;13.60;65.50;;;;;;5042363;28;20184;-66
2023/05/09 10:36:25;;;;;;;13.23;4.70;;;13.70;65.40;;;;;;5043365;28;20191;-64
2023/05/09 10:38:56;;;;;;;12.00;4.60;;;13.70;65.10;;;;;;5047417;28;20245;-63
2023/05/09 10:41:25;;;;;;;11.03;4.70;;;13.80;65.20;;;;;;5049090;28;20271;-64
2023/05/09 10:43:55;;;;;;;9.80;4.00;;;13.90;64.90;;;;;;5047059;28;22270;-64
2023/05/09 10:46:24;;;;;;;9.40;4.20;;;13.90;64.50;;;;;;5048324;28;20262;-65
2023/05/09 10:48:52;;;;;;;14.03;5.13;;;14.00;64.60;;;;;;5047606;28;20245;-63
2023/05/09 10:51:20;;;;;;;13.93;4.60;;;14.00;64.40;;;;;;5049121;28;20191;-64
2023/05/09 10:53:49;;;;;;;12.17;4.57;;;14.00;64.00;;;;;;5045151;28;20414;-64
2023/05/09 10:56:38;;;;;;;6.73;3.67;;;14.10;63.80;;;;;;5046614;28;20513;-65
2023/05/09 10:59:06;;;;;;;12.43;4.07;;;14.10;63.70;;;;;;5046087;28;20192;-66
2023/05/09 11:01:37;;;;;;;6.93;3.73;;;14.10;63.70;;;;;;5046740;28;20203;-65
2023/05/09 11:04:16;;;;;;;12.43;3.23;;;14.10;63.30;;;;;;5047116;28;20216;-65
2023/05/09 11:06:52;;;;;;;10.27;3.43;;;14.10;63.40;;;;;;5048702;28;20199;-63
2023/05/09 11:09:31;;;;;;;8.30;3.17;;;14.00;63.40;;;;;;5046156;28;20184;-64
2023/05/09 11:12:09;;;;;;;7.67;2.53;;;13.90;64.10;;;;;;5047717;28;20195;-63
2023/05/09 11:14:40;;;;;;;17.60;3.50;;;13.90;63.90;;;;;;5051174;28;20238;-64
2023/05/09 11:17:27;;;;;;;7.97;3.20;;;13.80;64.30;;;;;;5048095;28;20194;-66
2023/05/09 11:19:58;;;;;;;19.03;4.03;;;13.70;64.80;;;;;;5045316;28;20180;-64
2023/05/09 11:22:31;;;;;;;10.07;3.37;;;13.70;64.50;;;;;;5049086;28;20597;-66
2023/05/09 11:25:08;;;;;;;8.80;3.10;;;13.70;65.30;;;;;;5044837;28;20220;-63
2023/05/09 11:27:42;;;;;;;6.53;2.93;;;13.70;65.70;;;;;;5042761;28;20215;-66
2023/05/09 11:30:19;;;;;;;12.30;3.07;;;13.70;66.10;;;;;;5048469;28;20529;-66
2023/05/09 11:32:57;;;;;;;5.80;3.07;;;13.80;66.10;;;;;;5048847;28;20271;-64
2023/05/09 11:35:28;;;;;;;11.90;3.60;;;13.80;66.10;;;;;;5074617;28;20546;-64
2023/05/09 11:38:05;;;;;;;7.87;3.23;;;13.80;66.20;;;;;;5046950;28;20191;-64
2023/05/09 11:40:34;;;;;;;9.53;3.17;;;13.90;66.30;;;;;;5048644;28;20215;-66
2023/05/09 11:43:02;;;;;;;9.27;3.20;;;13.90;66.00;;;;;;5043965;28;20200;-65
2023/05/09 11:45:31;;;;;;;11.10;3.40;;;13.90;65.70;;;;;;5046050;28;20224;-64
2023/05/09 11:48:02;;;;;;;8.40;3.03;;;13.90;65.80;;;;;;5049530;28;20190;-63
2023/05/09 11:50:30;;;;;;;8.03;2.87;;;14.00;65.40;;;;;;5050524;28;20184;-64
2023/05/09 11:52:57;;;;;;;9.90;3.43;;;14.00;65.40;;;;;;5051542;28;20543;-63
2023/05/09 11:55:28;;;;;;;13.73;3.50;;;14.00;64.90;;;;;;5052148;28;20212;-63
2023/05/09 11:57:55;;;;;;;9.20;3.23;;;14.00;65.30;;;;;;5052364;28;20566;-63
2023/05/09 12:00:25;;;;;;;10.23;3.70;;;14.00;64.70;;;;;;5051602;28;20199;-63
2023/05/09 12:02:53;;;;;;;13.17;3.37;;;14.00;64.60;;;;;;5049860;28;20192;-63
2023/05/09 12:05:22;;;;;;;8.40;3.53;;;14.00;65.20;;;;;;5047347;28;20235;-64
2023/05/09 12:07:51;;;;;;;11.87;3.60;;;14.00;65.20;;;;;;5052060;28;20187;-62
2023/05/09 12:10:22;;;;;;;7.87;3.03;;;14.00;64.90;;;;;;5052733;28;20203;-63
2023/05/09 12:12:51;;;;;;;9.50;3.73;;;13.90;64.70;;;;;;5050361;28;20196;-63
2023/05/09 12:15:20;;;;;;;8.97;3.43;;;14.00;64.30;;;;;;5051051;28;20578;-64
2023/05/09 12:17:59;;;;;;;11.80;3.43;;;14.00;64.00;;;;;;5051996;28;20194;-63
2023/05/09 12:20:40;;;;;;;12.83;3.63;;;14.00;64.30;;;;;;5048144;28;20663;-63
2023/05/09 12:23:08;;;;;;;9.10;3.30;;;14.00;64.40;;;;;;5051239;28;20266;-64
2023/05/09 12:25:35;;;;;;;10.67;3.30;;;14.00;64.40;;;;;;5051307;28;20226;-64
2023/05/09 12:28:03;;;;;;;7.10;3.63;;;14.00;64.30;;;;;;5047448;28;20851;-64
2023/05/09 12:30:33;;;;;;;6.83;3.47;;;14.00;64.30;;;;;;5051242;28;20571;-64
2023/05/09 12:33:00;;;;;;;7.00;2.97;;;13.90;64.50;;;;;;5050498;28;20189;-63
2023/05/09 12:35:27;;;;;;;9.90;3.60;;;13.90;64.20;;;;;;5051621;28;20179;-64
2023/05/09 12:38:03;;;;;;;14.60;3.80;;;13.90;64.60;;;;;;5049561;28;20188;-63
2023/05/09 12:40:31;;;;;;;17.10;3.90;;;13.80;64.70;;;;;;5051379;28;20216;-65
2023/05/09 12:43:01;;;;;;;13.40;4.00;;;13.80;65.10;;;;;;5049029;28;20184;-63
2023/05/09 12:45:31;;;;;;;10.63;3.90;;;13.80;65.50;;;;;;5051857;28;20698;-64
2023/05/09 12:47:59;;;;;;;10.17;3.90;;;13.80;65.80;;;;;;5051561;28;20275;-64
2023/05/09 12:50:34;;;;;;;14.13;4.30;;;13.80;66.20;;;;;;5050542;28;20226;-63
2023/05/09 12:53:05;;;;;;;11.07;4.27;;;13.70;66.00;;;;;;5051567;28;20175;-64
2023/05/09 12:55:42;;;;;;;13.10;4.33;;;13.70;66.60;;;;;;5051871;28;20188;-64